sensor_id;sensor_type;location;lat;lon;timestamp;P1;durP1;ratioP1;P2;durP2;ratioP2
65373;SDS011;52070;53.760;9.678;2022-10-23T00:01:17;27.95;;;13.27;;
65373;SDS011;52070;53.760;9.678;2022-10-23T00:03:46;27.52;;;13.77;;
65373;SDS011;52070;53.760;9.678;2022-10-23T00:06:14;25.80;;;12.77;;
65373;SDS011;52070;53.760;9.678;2022-10-23T00:08:41;30.60;;;13.40;;
65373;SDS011;52070;53.760;9.678;2022-10-23T00:11:10;28.88;;;13.93;;
65373;SDS011;52070;53.760;9.678;2022-10-23T00:13:40;26.48;;;13.45;;
65373;SDS011;52070;53.760;9.678;2022-10-23T00:16:07;27.50;;;15.50;;
65373;SDS011;52070;53.760;9.678;2022-10-23T00:18:35;25.13;;;14.60;;
65373;SDS011;52070;53.760;9.678;2022-10-23T00:21:02;28.90;;;14.98;;
65373;SDS011;52070;53.760;9.678;2022-10-23T00:23:31;31.05;;;16.55;;
65373;SDS011;52070;53.760;9.678;2022-10-23T00:25:58;37.00;;;16.75;;
65373;SDS011;52070;53.760;9.678;2022-10-23T00:28:25;34.20;;;17.10;;
65373;SDS011;52070;53.760;9.678;2022-10-23T00:30:52;33.60;;;16.98;;
65373;SDS011;52070;53.760;9.678;2022-10-23T00:33:19;32.13;;;17.85;;
65373;SDS011;52070;53.760;9.678;2022-10-23T00:35:46;31.38;;;16.50;;
65373;SDS011;52070;53.760;9.678;2022-10-23T00:38:13;30.55;;;16.83;;
65373;SDS011;52070;53.760;9.678;2022-10-23T00:40:41;34.80;;;17.13;;
65373;SDS011;52070;53.760;9.678;2022-10-23T00:43:12;37.25;;;16.60;;
65373;SDS011;52070;53.760;9.678;2022-10-23T00:45:43;32.50;;;16.92;;
65373;SDS011;52070;53.760;9.678;2022-10-23T00:48:10;29.42;;;17.75;;
65373;SDS011;52070;53.760;9.678;2022-10-23T00:50:37;27.55;;;16.42;;
65373;SDS011;52070;53.760;9.678;2022-10-23T00:53:05;29.73;;;16.00;;
65373;SDS011;52070;53.760;9.678;2022-10-23T00:55:33;36.33;;;17.25;;
65373;SDS011;52070;53.760;9.678;2022-10-23T00:58:04;37.97;;;17.08;;
65373;SDS011;52070;53.760;9.678;2022-10-23T01:00:39;36.72;;;16.20;;
65373;SDS011;52070;53.760;9.678;2022-10-23T01:03:08;29.27;;;16.65;;
65373;SDS011;52070;53.760;9.678;2022-10-23T01:05:37;26.13;;;15.75;;
65373;SDS011;52070;53.760;9.678;2022-10-23T01:08:12;31.15;;;16.50;;
65373;SDS011;52070;53.760;9.678;2022-10-23T01:10:46;25.92;;;15.38;;
65373;SDS011;52070;53.760;9.678;2022-10-23T01:13:20;29.77;;;16.88;;
65373;SDS011;52070;53.760;9.678;2022-10-23T01:15:56;32.22;;;16.52;;
65373;SDS011;52070;53.760;9.678;2022-10-23T01:18:30;34.70;;;17.52;;
65373;SDS011;52070;53.760;9.678;2022-10-23T01:21:06;28.13;;;16.17;;
65373;SDS011;52070;53.760;9.678;2022-10-23T01:23:52;32.90;;;16.40;;
65373;SDS011;52070;53.760;9.678;2022-10-23T01:26:30;24.70;;;15.10;;
65373;SDS011;52070;53.760;9.678;2022-10-23T01:29:08;32.75;;;15.90;;
65373;SDS011;52070;53.760;9.678;2022-10-23T01:31:41;34.75;;;18.02;;
65373;SDS011;52070;53.760;9.678;2022-10-23T01:34:13;35.45;;;18.58;;
65373;SDS011;52070;53.760;9.678;2022-10-23T01:36:46;40.40;;;18.40;;
65373;SDS011;52070;53.760;9.678;2022-10-23T01:39:15;35.53;;;18.02;;
65373;SDS011;52070;53.760;9.678;2022-10-23T01:41:49;32.45;;;18.23;;
65373;SDS011;52070;53.760;9.678;2022-10-23T01:44:21;31.77;;;17.88;;
65373;SDS011;52070;53.760;9.678;2022-10-23T01:46:51;36.50;;;17.90;;
65373;SDS011;52070;53.760;9.678;2022-10-23T01:49:19;33.72;;;17.05;;
65373;SDS011;52070;53.760;9.678;2022-10-23T01:51:49;42.22;;;19.95;;
65373;SDS011;52070;53.760;9.678;2022-10-23T01:54:19;95.03;;;20.48;;
65373;SDS011;52070;53.760;9.678;2022-10-23T01:56:49;41.88;;;19.88;;
65373;SDS011;52070;53.760;9.678;2022-10-23T01:59:18;39.63;;;18.80;;
65373;SDS011;52070;53.760;9.678;2022-10-23T02:01:51;97.78;;;21.35;;
65373;SDS011;52070;53.760;9.678;2022-10-23T02:04:22;36.08;;;19.52;;
65373;SDS011;52070;53.760;9.678;2022-10-23T02:06:52;61.17;;;20.67;;
65373;SDS011;52070;53.760;9.678;2022-10-23T02:09:19;44.28;;;19.98;;
65373;SDS011;52070;53.760;9.678;2022-10-23T02:11:49;33.25;;;19.17;;
65373;SDS011;52070;53.760;9.678;2022-10-23T02:14:21;49.83;;;19.65;;
65373;SDS011;52070;53.760;9.678;2022-10-23T02:16:57;32.15;;;19.15;;
65373;SDS011;52070;53.760;9.678;2022-10-23T02:19:32;39.88;;;18.92;;
65373;SDS011;52070;53.760;9.678;2022-10-23T02:22:08;30.77;;;18.52;;
65373;SDS011;52070;53.760;9.678;2022-10-23T02:24:40;66.82;;;19.77;;
65373;SDS011;52070;53.760;9.678;2022-10-23T02:27:11;38.67;;;18.38;;
65373;SDS011;52070;53.760;9.678;2022-10-23T02:29:44;26.67;;;16.65;;
65373;SDS011;52070;53.760;9.678;2022-10-23T02:32:15;62.78;;;19.45;;
65373;SDS011;52070;53.760;9.678;2022-10-23T02:34:45;77.93;;;19.15;;
65373;SDS011;52070;53.760;9.678;2022-10-23T02:37:13;46.90;;;18.77;;
65373;SDS011;52070;53.760;9.678;2022-10-23T02:39:40;46.97;;;18.50;;
65373;SDS011;52070;53.760;9.678;2022-10-23T02:42:08;28.25;;;16.88;;
65373;SDS011;52070;53.760;9.678;2022-10-23T02:44:41;29.48;;;17.63;;
65373;SDS011;52070;53.760;9.678;2022-10-23T02:47:20;28.95;;;17.33;;
65373;SDS011;52070;53.760;9.678;2022-10-23T02:49:59;26.77;;;17.05;;
65373;SDS011;52070;53.760;9.678;2022-10-23T02:52:34;38.90;;;17.52;;
65373;SDS011;52070;53.760;9.678;2022-10-23T02:55:09;33.28;;;18.63;;
65373;SDS011;52070;53.760;9.678;2022-10-23T02:57:43;26.75;;;17.38;;
65373;SDS011;52070;53.760;9.678;2022-10-23T03:00:18;28.75;;;16.15;;
65373;SDS011;52070;53.760;9.678;2022-10-23T03:02:47;36.83;;;18.23;;
65373;SDS011;52070;53.760;9.678;2022-10-23T03:05:22;29.92;;;17.05;;
65373;SDS011;52070;53.760;9.678;2022-10-23T03:07:51;30.92;;;16.83;;
65373;SDS011;52070;53.760;9.678;2022-10-23T03:10:19;27.77;;;16.65;;
65373;SDS011;52070;53.760;9.678;2022-10-23T03:12:46;32.25;;;18.60;;
65373;SDS011;52070;53.760;9.678;2022-10-23T03:15:13;35.53;;;18.63;;
65373;SDS011;52070;53.760;9.678;2022-10-23T03:17:42;34.95;;;19.15;;
65373;SDS011;52070;53.760;9.678;2022-10-23T03:20:10;30.58;;;17.45;;
65373;SDS011;52070;53.760;9.678;2022-10-23T03:22:37;27.50;;;18.17;;
65373;SDS011;52070;53.760;9.678;2022-10-23T03:25:05;29.58;;;17.17;;
65373;SDS011;52070;53.760;9.678;2022-10-23T03:27:32;27.85;;;16.95;;
65373;SDS011;52070;53.760;9.678;2022-10-23T03:29:59;24.85;;;15.50;;
65373;SDS011;52070;53.760;9.678;2022-10-23T03:32:26;25.80;;;15.65;;
65373;SDS011;52070;53.760;9.678;2022-10-23T03:34:55;28.48;;;16.08;;
65373;SDS011;52070;53.760;9.678;2022-10-23T03:37:22;31.92;;;16.88;;
65373;SDS011;52070;53.760;9.678;2022-10-23T03:39:49;24.80;;;14.77;;
65373;SDS011;52070;53.760;9.678;2022-10-23T03:42:16;25.55;;;15.50;;
65373;SDS011;52070;53.760;9.678;2022-10-23T03:44:43;28.40;;;15.52;;
65373;SDS011;52070;53.760;9.678;2022-10-23T03:47:10;23.63;;;15.93;;
65373;SDS011;52070;53.760;9.678;2022-10-23T03:49:37;21.25;;;14.45;;
65373;SDS011;52070;53.760;9.678;2022-10-23T03:52:06;25.23;;;14.70;;
65373;SDS011;52070;53.760;9.678;2022-10-23T03:54:34;26.25;;;15.02;;
65373;SDS011;52070;53.760;9.678;2022-10-23T03:57:01;25.08;;;14.32;;
65373;SDS011;52070;53.760;9.678;2022-10-23T03:59:28;23.38;;;14.48;;
65373;SDS011;52070;53.760;9.678;2022-10-23T04:01:55;19.20;;;14.00;;
65373;SDS011;52070;53.760;9.678;2022-10-23T04:04:22;23.13;;;13.75;;
65373;SDS011;52070;53.760;9.678;2022-10-23T04:06:49;23.13;;;13.98;;
65373;SDS011;52070;53.760;9.678;2022-10-23T04:09:17;21.20;;;14.10;;
65373;SDS011;52070;53.760;9.678;2022-10-23T04:11:44;21.45;;;13.15;;
65373;SDS011;52070;53.760;9.678;2022-10-23T04:14:11;27.38;;;14.60;;
65373;SDS011;52070;53.760;9.678;2022-10-23T04:16:39;23.98;;;13.30;;
65373;SDS011;52070;53.760;9.678;2022-10-23T04:19:06;19.50;;;13.10;;
65373;SDS011;52070;53.760;9.678;2022-10-23T04:21:33;22.90;;;14.50;;
65373;SDS011;52070;53.760;9.678;2022-10-23T04:24:00;27.58;;;14.23;;
65373;SDS011;52070;53.760;9.678;2022-10-23T04:26:29;22.63;;;14.00;;
65373;SDS011;52070;53.760;9.678;2022-10-23T04:28:56;34.85;;;15.60;;
65373;SDS011;52070;53.760;9.678;2022-10-23T04:31:23;22.17;;;13.85;;
65373;SDS011;52070;53.760;9.678;2022-10-23T04:33:50;27.15;;;14.20;;
65373;SDS011;52070;53.760;9.678;2022-10-23T04:36:17;24.75;;;13.57;;
65373;SDS011;52070;53.760;9.678;2022-10-23T04:38:43;28.50;;;14.77;;
65373;SDS011;52070;53.760;9.678;2022-10-23T04:41:10;23.05;;;14.05;;
65373;SDS011;52070;53.760;9.678;2022-10-23T04:43:39;24.50;;;13.07;;
65373;SDS011;52070;53.760;9.678;2022-10-23T04:46:06;27.55;;;13.80;;
65373;SDS011;52070;53.760;9.678;2022-10-23T04:48:33;25.23;;;14.00;;
65373;SDS011;52070;53.760;9.678;2022-10-23T04:51:01;21.15;;;14.02;;
65373;SDS011;52070;53.760;9.678;2022-10-23T04:53:30;23.70;;;14.13;;
65373;SDS011;52070;53.760;9.678;2022-10-23T04:55:57;25.73;;;14.13;;
65373;SDS011;52070;53.760;9.678;2022-10-23T04:58:26;25.05;;;14.55;;
65373;SDS011;52070;53.760;9.678;2022-10-23T05:00:55;28.00;;;14.73;;
65373;SDS011;52070;53.760;9.678;2022-10-23T05:03:23;23.27;;;13.07;;
65373;SDS011;52070;53.760;9.678;2022-10-23T05:05:51;24.75;;;13.75;;
65373;SDS011;52070;53.760;9.678;2022-10-23T05:08:19;20.48;;;13.38;;
65373;SDS011;52070;53.760;9.678;2022-10-23T05:10:47;27.00;;;14.50;;
65373;SDS011;52070;53.760;9.678;2022-10-23T05:13:15;30.48;;;15.00;;
65373;SDS011;52070;53.760;9.678;2022-10-23T05:15:44;25.33;;;14.05;;
65373;SDS011;52070;53.760;9.678;2022-10-23T05:18:15;23.23;;;14.65;;
65373;SDS011;52070;53.760;9.678;2022-10-23T05:20:45;27.05;;;14.70;;
65373;SDS011;52070;53.760;9.678;2022-10-23T05:23:15;21.80;;;13.68;;
65373;SDS011;52070;53.760;9.678;2022-10-23T05:25:45;26.63;;;13.07;;
65373;SDS011;52070;53.760;9.678;2022-10-23T05:28:12;33.92;;;14.32;;
65373;SDS011;52070;53.760;9.678;2022-10-23T05:30:39;33.53;;;14.18;;
65373;SDS011;52070;53.760;9.678;2022-10-23T05:33:07;31.63;;;13.00;;
65373;SDS011;52070;53.760;9.678;2022-10-23T05:35:37;148.18;;;15.10;;
65373;SDS011;52070;53.760;9.678;2022-10-23T05:38:05;135.85;;;14.32;;
65373;SDS011;52070;53.760;9.678;2022-10-23T05:40:33;132.68;;;13.77;;
65373;SDS011;52070;53.760;9.678;2022-10-23T05:43:00;136.52;;;14.25;;
65373;SDS011;52070;53.760;9.678;2022-10-23T05:45:27;29.63;;;12.77;;
65373;SDS011;52070;53.760;9.678;2022-10-23T05:47:53;21.20;;;11.85;;
65373;SDS011;52070;53.760;9.678;2022-10-23T05:50:20;16.90;;;12.27;;
65373;SDS011;52070;53.760;9.678;2022-10-23T05:52:49;14.48;;;11.30;;
65373;SDS011;52070;53.760;9.678;2022-10-23T05:55:16;18.85;;;12.43;;
65373;SDS011;52070;53.760;9.678;2022-10-23T05:57:43;18.23;;;11.70;;
65373;SDS011;52070;53.760;9.678;2022-10-23T06:00:10;17.65;;;12.18;;
65373;SDS011;52070;53.760;9.678;2022-10-23T06:02:38;18.63;;;11.93;;
65373;SDS011;52070;53.760;9.678;2022-10-23T06:05:05;15.73;;;11.65;;
65373;SDS011;52070;53.760;9.678;2022-10-23T06:07:32;15.52;;;11.95;;
65373;SDS011;52070;53.760;9.678;2022-10-23T06:10:00;19.27;;;10.88;;
65373;SDS011;52070;53.760;9.678;2022-10-23T06:12:27;21.80;;;11.48;;
65373;SDS011;52070;53.760;9.678;2022-10-23T06:14:54;18.02;;;10.82;;
65373;SDS011;52070;53.760;9.678;2022-10-23T06:17:21;18.05;;;11.13;;
65373;SDS011;52070;53.760;9.678;2022-10-23T06:19:48;42.97;;;11.35;;
65373;SDS011;52070;53.760;9.678;2022-10-23T06:22:15;23.95;;;11.20;;
65373;SDS011;52070;53.760;9.678;2022-10-23T06:24:42;39.53;;;11.95;;
65373;SDS011;52070;53.760;9.678;2022-10-23T06:27:10;15.30;;;10.90;;
65373;SDS011;52070;53.760;9.678;2022-10-23T06:29:37;43.78;;;11.27;;
65373;SDS011;52070;53.760;9.678;2022-10-23T06:32:06;28.27;;;11.20;;
65373;SDS011;52070;53.760;9.678;2022-10-23T06:34:32;22.23;;;10.98;;
65373;SDS011;52070;53.760;9.678;2022-10-23T06:36:59;17.60;;;10.77;;
65373;SDS011;52070;53.760;9.678;2022-10-23T06:39:26;12.25;;;9.68;;
65373;SDS011;52070;53.760;9.678;2022-10-23T06:41:53;12.65;;;10.23;;
65373;SDS011;52070;53.760;9.678;2022-10-23T06:44:22;13.82;;;10.25;;
65373;SDS011;52070;53.760;9.678;2022-10-23T06:46:49;18.52;;;10.85;;
65373;SDS011;52070;53.760;9.678;2022-10-23T06:49:16;48.88;;;10.75;;
65373;SDS011;52070;53.760;9.678;2022-10-23T06:51:43;13.10;;;9.85;;
65373;SDS011;52070;53.760;9.678;2022-10-23T06:54:10;13.10;;;10.40;;
65373;SDS011;52070;53.760;9.678;2022-10-23T06:56:37;15.88;;;10.20;;
65373;SDS011;52070;53.760;9.678;2022-10-23T06:59:04;18.85;;;11.20;;
65373;SDS011;52070;53.760;9.678;2022-10-23T07:01:34;22.48;;;10.23;;
65373;SDS011;52070;53.760;9.678;2022-10-23T07:04:01;11.32;;;9.32;;
65373;SDS011;52070;53.760;9.678;2022-10-23T07:06:28;19.52;;;9.75;;
65373;SDS011;52070;53.760;9.678;2022-10-23T07:08:55;17.98;;;10.25;;
65373;SDS011;52070;53.760;9.678;2022-10-23T07:11:22;18.00;;;10.32;;
65373;SDS011;52070;53.760;9.678;2022-10-23T07:13:48;22.40;;;9.43;;
65373;SDS011;52070;53.760;9.678;2022-10-23T07:16:16;18.80;;;9.88;;
65373;SDS011;52070;53.760;9.678;2022-10-23T07:18:46;14.50;;;10.60;;
65373;SDS011;52070;53.760;9.678;2022-10-23T07:21:14;14.60;;;9.48;;
65373;SDS011;52070;53.760;9.678;2022-10-23T07:23:41;15.80;;;9.63;;
65373;SDS011;52070;53.760;9.678;2022-10-23T07:26:08;19.75;;;10.77;;
65373;SDS011;52070;53.760;9.678;2022-10-23T07:28:38;17.00;;;10.82;;
65373;SDS011;52070;53.760;9.678;2022-10-23T07:31:06;19.73;;;11.27;;
65373;SDS011;52070;53.760;9.678;2022-10-23T07:33:33;13.73;;;9.70;;
65373;SDS011;52070;53.760;9.678;2022-10-23T07:36:04;19.40;;;10.75;;
65373;SDS011;52070;53.760;9.678;2022-10-23T07:38:31;25.50;;;11.00;;
65373;SDS011;52070;53.760;9.678;2022-10-23T07:40:59;32.05;;;12.30;;
65373;SDS011;52070;53.760;9.678;2022-10-23T07:43:26;47.65;;;23.50;;
65373;SDS011;52070;53.760;9.678;2022-10-23T07:45:54;71.25;;;34.75;;
65373;SDS011;52070;53.760;9.678;2022-10-23T07:48:22;85.43;;;40.15;;
65373;SDS011;52070;53.760;9.678;2022-10-23T07:50:51;59.35;;;33.85;;
65373;SDS011;52070;53.760;9.678;2022-10-23T07:53:22;39.53;;;20.75;;
65373;SDS011;52070;53.760;9.678;2022-10-23T07:55:51;67.93;;;39.15;;
65373;SDS011;52070;53.760;9.678;2022-10-23T07:58:18;31.48;;;19.05;;
65373;SDS011;52070;53.760;9.678;2022-10-23T08:00:45;23.98;;;14.23;;
65373;SDS011;52070;53.760;9.678;2022-10-23T08:03:17;26.00;;;15.60;;
65373;SDS011;52070;53.760;9.678;2022-10-23T08:05:44;28.38;;;17.92;;
65373;SDS011;52070;53.760;9.678;2022-10-23T08:08:11;28.80;;;16.65;;
65373;SDS011;52070;53.760;9.678;2022-10-23T08:10:40;25.70;;;15.77;;
65373;SDS011;52070;53.760;9.678;2022-10-23T08:13:08;25.73;;;15.50;;
65373;SDS011;52070;53.760;9.678;2022-10-23T08:15:38;29.75;;;15.55;;
65373;SDS011;52070;53.760;9.678;2022-10-23T08:18:05;21.27;;;14.38;;
65373;SDS011;52070;53.760;9.678;2022-10-23T08:20:36;26.73;;;14.32;;
65373;SDS011;52070;53.760;9.678;2022-10-23T08:23:04;21.63;;;12.73;;
65373;SDS011;52070;53.760;9.678;2022-10-23T08:25:31;22.25;;;12.80;;
65373;SDS011;52070;53.760;9.678;2022-10-23T08:27:59;23.40;;;13.30;;
65373;SDS011;52070;53.760;9.678;2022-10-23T08:30:26;21.77;;;13.30;;
65373;SDS011;52070;53.760;9.678;2022-10-23T08:32:53;24.55;;;13.45;;
65373;SDS011;52070;53.760;9.678;2022-10-23T08:35:20;23.75;;;12.95;;
65373;SDS011;52070;53.760;9.678;2022-10-23T08:37:47;19.95;;;12.73;;
65373;SDS011;52070;53.760;9.678;2022-10-23T08:40:14;20.95;;;12.18;;
65373;SDS011;52070;53.760;9.678;2022-10-23T08:42:43;22.88;;;13.02;;
65373;SDS011;52070;53.760;9.678;2022-10-23T08:45:20;22.20;;;12.45;;
65373;SDS011;52070;53.760;9.678;2022-10-23T08:50:24;25.33;;;12.88;;
65373;SDS011;52070;53.760;9.678;2022-10-23T08:52:56;22.75;;;12.65;;
65373;SDS011;52070;53.760;9.678;2022-10-23T08:55:29;23.25;;;12.82;;
65373;SDS011;52070;53.760;9.678;2022-10-23T08:58:00;23.08;;;11.45;;
65373;SDS011;52070;53.760;9.678;2022-10-23T09:02:59;19.25;;;12.27;;
65373;SDS011;52070;53.760;9.678;2022-10-23T09:05:29;20.67;;;11.38;;
65373;SDS011;52070;53.760;9.678;2022-10-23T09:08:00;25.00;;;12.60;;
65373;SDS011;52070;53.760;9.678;2022-10-23T09:10:50;25.13;;;12.18;;
65373;SDS011;52070;53.760;9.678;2022-10-23T09:13:31;26.58;;;12.27;;
65373;SDS011;52070;53.760;9.678;2022-10-23T09:16:12;23.88;;;12.05;;
65373;SDS011;52070;53.760;9.678;2022-10-23T09:18:44;20.35;;;11.95;;
65373;SDS011;52070;53.760;9.678;2022-10-23T09:21:12;22.92;;;13.50;;
65373;SDS011;52070;53.760;9.678;2022-10-23T09:23:39;19.98;;;12.15;;
65373;SDS011;52070;53.760;9.678;2022-10-23T09:26:06;25.90;;;12.15;;
65373;SDS011;52070;53.760;9.678;2022-10-23T09:28:42;22.27;;;11.45;;
65373;SDS011;52070;53.760;9.678;2022-10-23T09:31:13;22.88;;;11.52;;
65373;SDS011;52070;53.760;9.678;2022-10-23T09:33:51;69.18;;;36.42;;
65373;SDS011;52070;53.760;9.678;2022-10-23T09:36:20;21.77;;;12.95;;
65373;SDS011;52070;53.760;9.678;2022-10-23T09:38:51;25.95;;;15.98;;
65373;SDS011;52070;53.760;9.678;2022-10-23T09:41:20;27.13;;;13.07;;
65373;SDS011;52070;53.760;9.678;2022-10-23T09:43:58;17.80;;;11.15;;
65373;SDS011;52070;53.760;9.678;2022-10-23T09:46:36;22.73;;;12.30;;
65373;SDS011;52070;53.760;9.678;2022-10-23T09:49:04;20.65;;;10.63;;
65373;SDS011;52070;53.760;9.678;2022-10-23T09:51:32;17.15;;;10.65;;
65373;SDS011;52070;53.760;9.678;2022-10-23T09:53:59;20.17;;;11.15;;
65373;SDS011;52070;53.760;9.678;2022-10-23T09:56:28;21.90;;;10.93;;
65373;SDS011;52070;53.760;9.678;2022-10-23T09:58:58;17.42;;;10.75;;
65373;SDS011;52070;53.760;9.678;2022-10-23T10:01:27;19.93;;;10.13;;
65373;SDS011;52070;53.760;9.678;2022-10-23T10:03:58;16.73;;;10.55;;
65373;SDS011;52070;53.760;9.678;2022-10-23T10:06:25;24.27;;;10.18;;
65373;SDS011;52070;53.760;9.678;2022-10-23T10:08:54;19.48;;;9.80;;
65373;SDS011;52070;53.760;9.678;2022-10-23T10:11:25;20.95;;;9.25;;
65373;SDS011;52070;53.760;9.678;2022-10-23T10:14:12;17.98;;;8.50;;
65373;SDS011;52070;53.760;9.678;2022-10-23T10:17:14;13.90;;;8.10;;
65373;SDS011;52070;53.760;9.678;2022-10-23T10:19:57;16.08;;;7.90;;
65373;SDS011;52070;53.760;9.678;2022-10-23T10:22:33;14.45;;;7.82;;
65373;SDS011;52070;53.760;9.678;2022-10-23T10:25:07;11.40;;;7.28;;
65373;SDS011;52070;53.760;9.678;2022-10-23T10:27:40;15.18;;;7.03;;
65373;SDS011;52070;53.760;9.678;2022-10-23T10:30:15;18.02;;;7.57;;
65373;SDS011;52070;53.760;9.678;2022-10-23T10:32:46;15.20;;;7.35;;
65373;SDS011;52070;53.760;9.678;2022-10-23T10:35:24;15.18;;;7.00;;
65373;SDS011;52070;53.760;9.678;2022-10-23T10:38:07;11.63;;;6.38;;
65373;SDS011;52070;53.760;9.678;2022-10-23T10:40:57;9.25;;;6.20;;
65373;SDS011;52070;53.760;9.678;2022-10-23T10:43:46;12.07;;;5.68;;
65373;SDS011;52070;53.760;9.678;2022-10-23T10:46:27;18.48;;;6.22;;
65373;SDS011;52070;53.760;9.678;2022-10-23T10:49:03;14.05;;;6.10;;
65373;SDS011;52070;53.760;9.678;2022-10-23T10:51:41;11.60;;;5.93;;
65373;SDS011;52070;53.760;9.678;2022-10-23T10:54:20;9.93;;;5.10;;
65373;SDS011;52070;53.760;9.678;2022-10-23T10:56:54;11.80;;;4.90;;
65373;SDS011;52070;53.760;9.678;2022-10-23T10:59:25;14.35;;;4.68;;
65373;SDS011;52070;53.760;9.678;2022-10-23T11:01:55;10.35;;;4.65;;
65373;SDS011;52070;53.760;9.678;2022-10-23T11:04:30;8.13;;;4.07;;
65373;SDS011;52070;53.760;9.678;2022-10-23T11:07:06;12.40;;;5.00;;
65373;SDS011;52070;53.760;9.678;2022-10-23T11:09:37;11.30;;;4.38;;
65373;SDS011;52070;53.760;9.678;2022-10-23T11:12:05;21.58;;;8.77;;
65373;SDS011;52070;53.760;9.678;2022-10-23T11:14:33;13.88;;;5.70;;
65373;SDS011;52070;53.760;9.678;2022-10-23T11:17:01;13.05;;;5.43;;
65373;SDS011;52070;53.760;9.678;2022-10-23T11:19:33;8.80;;;3.45;;
65373;SDS011;52070;53.760;9.678;2022-10-23T11:22:05;12.25;;;3.60;;
65373;SDS011;52070;53.760;9.678;2022-10-23T11:30:38;7.95;;;3.50;;
65373;SDS011;52070;53.760;9.678;2022-10-23T11:33:27;9.45;;;3.83;;
65373;SDS011;52070;53.760;9.678;2022-10-23T11:36:15;8.43;;;2.83;;
65373;SDS011;52070;53.760;9.678;2022-10-23T11:38:45;9.07;;;4.47;;
65373;SDS011;52070;53.760;9.678;2022-10-23T11:41:18;6.00;;;4.32;;
65373;SDS011;52070;53.760;9.678;2022-10-23T11:43:47;10.10;;;4.00;;
65373;SDS011;52070;53.760;9.678;2022-10-23T11:46:27;12.45;;;5.97;;
65373;SDS011;52070;53.760;9.678;2022-10-23T11:48:56;8.73;;;2.90;;
65373;SDS011;52070;53.760;9.678;2022-10-23T11:54:05;5.85;;;2.35;;
65373;SDS011;52070;53.760;9.678;2022-10-23T11:56:49;8.10;;;2.60;;
65373;SDS011;52070;53.760;9.678;2022-10-23T11:59:20;10.85;;;2.90;;
65373;SDS011;52070;53.760;9.678;2022-10-23T12:01:51;11.43;;;2.95;;
65373;SDS011;52070;53.760;9.678;2022-10-23T12:04:20;10.02;;;2.60;;
65373;SDS011;52070;53.760;9.678;2022-10-23T12:06:51;6.28;;;2.42;;
65373;SDS011;52070;53.760;9.678;2022-10-23T12:09:22;7.88;;;2.78;;
65373;SDS011;52070;53.760;9.678;2022-10-23T12:14:52;7.25;;;2.90;;
65373;SDS011;52070;53.760;9.678;2022-10-23T12:17:32;7.43;;;3.80;;
65373;SDS011;52070;53.760;9.678;2022-10-23T12:22:44;17.42;;;7.82;;
65373;SDS011;52070;53.760;9.678;2022-10-23T12:25:18;7.25;;;3.15;;
65373;SDS011;52070;53.760;9.678;2022-10-23T12:27:55;12.98;;;4.70;;
65373;SDS011;52070;53.760;9.678;2022-10-23T12:30:28;15.02;;;3.20;;
65373;SDS011;52070;53.760;9.678;2022-10-23T12:33:08;9.90;;;2.95;;
65373;SDS011;52070;53.760;9.678;2022-10-23T12:35:47;7.82;;;2.70;;
65373;SDS011;52070;53.760;9.678;2022-10-23T12:38:32;8.95;;;2.72;;
65373;SDS011;52070;53.760;9.678;2022-10-23T12:41:09;7.90;;;2.65;;
65373;SDS011;52070;53.760;9.678;2022-10-23T12:43:38;5.95;;;2.38;;
65373;SDS011;52070;53.760;9.678;2022-10-23T12:46:16;13.57;;;2.85;;
65373;SDS011;52070;53.760;9.678;2022-10-23T12:48:53;8.25;;;2.67;;
65373;SDS011;52070;53.760;9.678;2022-10-23T12:51:22;10.70;;;2.75;;
65373;SDS011;52070;53.760;9.678;2022-10-23T12:53:50;10.43;;;3.17;;
65373;SDS011;52070;53.760;9.678;2022-10-23T12:56:18;11.25;;;3.03;;
65373;SDS011;52070;53.760;9.678;2022-10-23T12:58:46;6.68;;;2.50;;
65373;SDS011;52070;53.760;9.678;2022-10-23T13:01:23;8.45;;;2.65;;
65373;SDS011;52070;53.760;9.678;2022-10-23T13:03:55;5.15;;;2.55;;
65373;SDS011;52070;53.760;9.678;2022-10-23T13:06:25;10.82;;;2.97;;
65373;SDS011;52070;53.760;9.678;2022-10-23T13:08:53;8.73;;;2.47;;
65373;SDS011;52070;53.760;9.678;2022-10-23T13:11:22;14.18;;;2.65;;
65373;SDS011;52070;53.760;9.678;2022-10-23T13:13:51;8.60;;;2.77;;
65373;SDS011;52070;53.760;9.678;2022-10-23T13:16:19;10.07;;;2.40;;
65373;SDS011;52070;53.760;9.678;2022-10-23T13:18:47;6.68;;;2.80;;
65373;SDS011;52070;53.760;9.678;2022-10-23T13:21:15;14.10;;;3.03;;
65373;SDS011;52070;53.760;9.678;2022-10-23T13:23:45;7.43;;;2.88;;
65373;SDS011;52070;53.760;9.678;2022-10-23T13:26:21;13.68;;;3.10;;
65373;SDS011;52070;53.760;9.678;2022-10-23T13:28:54;8.20;;;2.58;;
65373;SDS011;52070;53.760;9.678;2022-10-23T13:31:26;8.10;;;2.47;;
65373;SDS011;52070;53.760;9.678;2022-10-23T13:34:12;10.55;;;2.63;;
65373;SDS011;52070;53.760;9.678;2022-10-23T13:36:50;8.63;;;2.28;;
65373;SDS011;52070;53.760;9.678;2022-10-23T13:39:22;10.57;;;2.70;;
65373;SDS011;52070;53.760;9.678;2022-10-23T13:41:51;9.25;;;2.63;;
65373;SDS011;52070;53.760;9.678;2022-10-23T13:44:19;9.68;;;2.33;;
65373;SDS011;52070;53.760;9.678;2022-10-23T13:46:48;6.68;;;2.55;;
65373;SDS011;52070;53.760;9.678;2022-10-23T13:49:16;7.97;;;2.70;;
65373;SDS011;52070;53.760;9.678;2022-10-23T13:51:45;5.50;;;2.50;;
65373;SDS011;52070;53.760;9.678;2022-10-23T13:54:15;9.40;;;2.65;;
65373;SDS011;52070;53.760;9.678;2022-10-23T13:56:43;8.68;;;2.53;;
65373;SDS011;52070;53.760;9.678;2022-10-23T13:59:12;8.27;;;2.80;;
65373;SDS011;52070;53.760;9.678;2022-10-23T14:01:39;10.52;;;2.53;;
65373;SDS011;52070;53.760;9.678;2022-10-23T14:04:07;8.07;;;2.60;;
65373;SDS011;52070;53.760;9.678;2022-10-23T14:06:35;8.45;;;2.20;;
65373;SDS011;52070;53.760;9.678;2022-10-23T14:09:03;8.38;;;2.40;;
65373;SDS011;52070;53.760;9.678;2022-10-23T14:11:31;9.75;;;2.47;;
65373;SDS011;52070;53.760;9.678;2022-10-23T14:13:58;6.95;;;2.58;;
65373;SDS011;52070;53.760;9.678;2022-10-23T14:16:27;8.57;;;2.40;;
65373;SDS011;52070;53.760;9.678;2022-10-23T14:18:54;8.75;;;2.55;;
65373;SDS011;52070;53.760;9.678;2022-10-23T14:21:22;6.57;;;2.78;;
65373;SDS011;52070;53.760;9.678;2022-10-23T14:23:50;7.80;;;2.72;;
65373;SDS011;52070;53.760;9.678;2022-10-23T14:26:18;5.78;;;2.35;;
65373;SDS011;52070;53.760;9.678;2022-10-23T14:28:46;9.60;;;3.45;;
65373;SDS011;52070;53.760;9.678;2022-10-23T14:31:14;8.52;;;2.83;;
65373;SDS011;52070;53.760;9.678;2022-10-23T14:33:44;6.97;;;2.53;;
65373;SDS011;52070;53.760;9.678;2022-10-23T14:36:12;5.72;;;2.65;;
65373;SDS011;52070;53.760;9.678;2022-10-23T14:38:39;11.73;;;2.47;;
65373;SDS011;52070;53.760;9.678;2022-10-23T14:41:09;14.55;;;2.88;;
65373;SDS011;52070;53.760;9.678;2022-10-23T14:43:36;8.07;;;2.55;;
65373;SDS011;52070;53.760;9.678;2022-10-23T14:46:10;9.20;;;2.50;;
65373;SDS011;52070;53.760;9.678;2022-10-23T14:48:38;9.00;;;3.00;;
65373;SDS011;52070;53.760;9.678;2022-10-23T14:51:13;7.20;;;2.90;;
65373;SDS011;52070;53.760;9.678;2022-10-23T14:53:43;10.60;;;3.13;;
65373;SDS011;52070;53.760;9.678;2022-10-23T14:56:10;9.88;;;3.20;;
65373;SDS011;52070;53.760;9.678;2022-10-23T14:58:37;7.55;;;2.92;;
65373;SDS011;52070;53.760;9.678;2022-10-23T15:01:04;9.10;;;2.95;;
65373;SDS011;52070;53.760;9.678;2022-10-23T15:03:31;8.15;;;3.00;;
65373;SDS011;52070;53.760;9.678;2022-10-23T15:05:58;8.23;;;2.88;;